Time;durP1;ratioP1;P1;durP2;ratioP2;P2;SDS_P1;SDS_P2;PMS_P1;PMS_P2;Temp;Humidity;BMP_temperature;BMP_pressure;BME280_temperature;BME280_humidity;BME280_pressure;Samples;Min_cycle;Max_cycle;Signal;HPM_P1;HPM_P2
2020/12/17 00:00:30;;;;;;;9.60;7.43;;;;;;;11.81;69.29;101326.06;5011065;28;20114;-88
2020/12/17 00:02:56;;;;;;;9.80;7.63;;;;;;;11.83;69.10;101321.59;5011595;28;20132;-88
2020/12/17 00:05:23;;;;;;;10.05;7.30;;;;;;;11.82;69.47;101327.81;5015283;28;20030;-88
2020/12/17 00:07:50;;;;;;;10.65;7.57;;;;;;;11.81;69.77;101316.34;5011998;28;20038;-88
2020/12/17 00:10:16;;;;;;;12.32;8.02;;;;;;;11.84;69.94;101323.38;5012534;28;20026;-89
2020/12/17 00:12:45;;;;;;;9.80;6.90;;;;;;;11.80;69.31;101332.25;5012791;28;20083;-88
2020/12/17 00:15:15;;;;;;;10.27;7.28;;;;;;;11.82;69.47;101333.13;5020475;28;20400;-87
2020/12/17 00:17:46;;;;;;;11.05;8.35;;;;;;;11.81;69.85;101323.41;5024839;28;20022;-88
2020/12/17 00:20:14;;;;;;;10.20;7.65;;;;;;;11.81;69.92;101323.41;5025334;28;20507;-88
2020/12/17 00:22:41;;;;;;;11.27;8.50;;;;;;;11.81;69.90;101328.72;5031820;28;20108;-87
2020/12/17 00:25:10;;;;;;;7.75;6.90;;;;;;;11.79;69.64;101328.75;5030204;28;20017;-87
2020/12/17 00:27:39;;;;;;;10.35;8.05;;;;;;;11.76;69.87;101326.16;5031258;22;20052;-83
2020/12/17 00:30:09;;;;;;;8.50;7.07;;;;;;;11.80;69.66;101332.25;5023774;28;20029;-83
2020/12/17 00:32:36;;;;;;;12.20;7.82;;;;;;;11.78;70.05;101323.47;5023439;28;20515;-83
2020/12/17 00:35:04;;;;;;;10.38;7.60;;;;;;;11.79;69.74;101326.09;5026892;28;20040;-82
2020/12/17 00:37:33;;;;;;;9.07;6.65;;;;;;;11.84;69.22;101323.38;5030562;28;20021;-82
2020/12/17 00:40:00;;;;;;;8.65;7.30;;;;;;;11.81;70.03;101313.69;5029853;28;20044;-83
2020/12/17 00:42:26;;;;;;;9.43;7.57;;;;;;;11.84;69.40;101312.75;5032040;28;20109;-83
2020/12/17 00:44:53;;;;;;;10.20;7.35;;;;;;;11.85;69.47;101310.94;5031665;28;20033;-84
2020/12/17 00:47:19;;;;;;;9.48;7.55;;;;;;;11.84;69.77;101315.41;5029612;28;20464;-83
2020/12/17 00:49:46;;;;;;;10.60;7.32;;;;;;;11.91;69.27;101313.50;5031575;28;20499;-83
2020/12/17 00:52:13;;;;;;;9.65;7.88;;;;;;;11.88;68.85;101316.22;5031798;28;20531;-83
2020/12/17 00:54:40;;;;;;;9.98;7.07;;;;;;;11.87;69.55;101315.31;5031496;28;20017;-83
2020/12/17 00:57:07;;;;;;;10.88;7.60;;;;;;;11.88;69.05;101317.09;5031424;28;20035;-84
2020/12/17 00:59:34;;;;;;;9.68;8.07;;;;;;;11.82;69.21;101320.75;5031579;28;20107;-84
2020/12/17 01:02:00;;;;;;;9.63;8.02;;;;;;;11.88;69.91;101317.09;5031984;28;20036;-84
2020/12/17 01:04:27;;;;;;;10.88;7.40;;;;;;;11.87;69.62;101317.13;5032683;28;20550;-84
2020/12/17 01:06:53;;;;;;;9.45;8.02;;;;;;;11.87;69.70;101312.66;5029999;28;20030;-83
2020/12/17 01:09:20;;;;;;;10.75;8.00;;;;;;;11.87;69.41;101320.63;5028396;28;20033;-86
2020/12/17 01:11:46;;;;;;;9.82;7.75;;;;;;;11.90;69.58;101311.75;5029917;28;20038;-83
2020/12/17 01:14:13;;;;;;;9.35;7.47;;;;;;;11.91;69.42;101316.16;5031474;28;20029;-85
2020/12/17 01:16:39;;;;;;;9.73;7.40;;;;;;;11.95;69.52;101316.06;5030922;28;20025;-85
2020/12/17 01:19:06;;;;;;;10.20;7.72;;;;;;;11.92;69.58;101313.47;5030786;28;20029;-84
2020/12/17 01:21:32;;;;;;;11.80;7.63;;;;;;;11.91;69.24;101314.38;5027672;28;20390;-84
2020/12/17 01:23:59;;;;;;;12.15;7.88;;;;;;;11.86;70.10;101321.53;5031178;28;20377;-85
2020/12/17 01:26:25;;;;;;;10.65;7.90;;;;;;;11.89;69.36;101320.63;5031618;28;20029;-85
2020/12/17 01:28:52;;;;;;;12.90;8.75;;;;;;;11.91;69.67;101316.16;5031890;28;20057;-84
2020/12/17 01:31:20;;;;;;;10.43;8.23;;;;;;;11.95;69.53;101320.50;5032187;28;20091;-85
2020/12/17 01:33:47;;;;;;;10.00;8.13;;;;;;;11.90;70.02;101320.59;5030533;28;20025;-84
2020/12/17 01:36:14;;;;;;;10.77;8.00;;;;;;;11.88;70.05;101319.75;5031721;28;20362;-86
2020/12/17 01:38:41;;;;;;;10.85;7.97;;;;;;;11.92;70.08;101318.78;5034489;28;20077;-85
2020/12/17 01:41:13;;;;;;;10.73;8.80;;;;;;;11.91;69.86;101317.03;5035386;28;20101;-85
2020/12/17 01:43:43;;;;;;;10.30;8.40;;;;;;;11.90;69.89;101323.25;5035859;28;20025;-84
2020/12/17 01:46:10;;;;;;;10.70;7.85;;;;;;;11.90;69.61;101325.91;5033442;28;20025;-84
2020/12/17 01:48:38;;;;;;;11.95;8.07;;;;;;;11.91;70.08;101324.13;5035568;28;20121;-85
2020/12/17 01:51:05;;;;;;;10.13;7.78;;;;;;;11.87;70.04;101323.28;5024165;28;20033;-85
2020/12/17 01:53:38;;;;;;;12.15;8.18;;;;;;;11.95;69.81;101315.19;5023302;28;20034;-86
2020/12/17 01:56:13;;;;;;;10.32;7.78;;;;;;;11.93;69.80;101317.00;5027181;28;20033;-84
2020/12/17 01:58:44;;;;;;;11.82;8.48;;;;;;;11.90;70.12;101317.94;5048323;22;20052;-88
2020/12/17 02:01:12;;;;;;;12.07;8.55;;;;;;;11.91;69.50;101319.69;5036709;28;20029;-88
2020/12/17 02:03:40;;;;;;;11.70;8.10;;;;;;;11.93;69.96;101322.31;5037036;28;20025;-88
2020/12/17 02:06:07;;;;;;;11.32;8.18;;;;;;;11.91;69.56;101324.13;5037114;28;20108;-88
2020/12/17 02:08:38;;;;;;;13.48;9.30;;;;;;;11.94;69.98;101314.31;5037258;28;20431;-89
2020/12/17 02:11:10;;;;;;;11.73;8.63;;;;;;;11.95;69.83;101315.19;5036700;28;20035;-88
2020/12/17 02:13:37;;;;;;;12.40;8.48;;;;;;;11.85;69.83;101317.16;5036783;28;20022;-88
2020/12/17 02:16:06;;;;;;;12.63;9.50;;;;;;;11.88;69.88;101311.78;5036760;28;20032;-88
2020/12/17 02:18:33;;;;;;;16.48;9.98;;;;;;;11.87;70.26;101311.81;5036673;28;20398;-87
2020/12/17 02:21:00;;;;;;;13.63;8.73;;;;;;;11.87;69.86;101311.81;5036706;28;20029;-88
2020/12/17 02:23:27;;;;;;;12.77;9.27;;;;;;;11.89;69.75;101315.31;5036296;28;20130;-87
2020/12/17 02:25:54;;;;;;;11.23;7.97;;;;;;;11.88;70.56;101303.81;5036388;28;20030;-88
2020/12/17 02:28:22;;;;;;;11.77;8.25;;;;;;;11.91;70.31;101314.38;5039153;28;20471;-88
2020/12/17 02:30:49;;;;;;;13.55;8.43;;;;;;;11.83;70.39;101318.94;5041568;28;20112;-88
2020/12/17 02:33:16;;;;;;;10.93;8.05;;;;;;;11.88;70.41;101325.06;5038934;28;20116;-88
2020/12/17 02:35:50;;;;;;;11.00;8.75;;;;;;;11.86;70.21;101318.88;5036380;28;20029;-87
2020/12/17 02:38:23;;;;;;;13.82;8.70;;;;;;;11.93;70.25;101317.00;5035720;28;20030;-87
2020/12/17 02:40:56;;;;;;;11.20;8.52;;;;;;;11.90;69.96;101317.94;5036590;28;20033;-87
2020/12/17 02:43:23;;;;;;;12.30;9.15;;;;;;;11.77;70.54;101311.09;5036443;28;20029;-87
2020/12/17 02:45:50;;;;;;;9.75;7.72;;;;;;;11.85;70.31;101314.50;5036724;28;20064;-88
2020/12/17 02:48:19;;;;;;;10.30;7.78;;;;;;;11.87;70.61;101312.66;5036645;28;20407;-88
2020/12/17 02:50:46;;;;;;;12.23;8.45;;;;;;;11.84;70.42;101310.09;5035929;28;20045;-88
2020/12/17 02:53:13;;;;;;;12.77;8.82;;;;;;;11.85;70.15;101313.59;5036028;28;20056;-88
2020/12/17 02:55:39;;;;;;;12.43;8.95;;;;;;;11.85;70.18;101317.16;5035723;28;20036;-89
2020/12/17 02:58:06;;;;;;;11.27;8.63;;;;;;;11.81;70.42;101315.44;5036262;28;20032;-88
2020/12/17 03:00:33;;;;;;;11.18;8.73;;;;;;;11.74;70.53;101317.34;5035451;28;20075;-88
2020/12/17 03:03:00;;;;;;;12.18;8.88;;;;;;;11.74;70.95;101317.34;5036177;28;20446;-88
2020/12/17 03:05:27;;;;;;;13.15;9.43;;;;;;;11.76;71.39;101312.00;5035724;28;20044;-88
2020/12/17 03:07:56;;;;;;;13.35;9.43;;;;;;;11.78;70.62;101321.69;5035482;28;20544;-88
2020/12/17 03:10:22;;;;;;;11.02;9.60;;;;;;;11.77;70.95;101311.09;5035458;28;20037;-88
2020/12/17 03:12:49;;;;;;;15.40;10.93;;;;;;;11.82;70.62;101325.16;5035349;28;20026;-87
2020/12/17 03:15:15;;;;;;;14.15;10.60;;;;;;;11.76;71.43;101323.50;5035388;28;20037;-87
2020/12/17 03:17:42;;;;;;;16.63;10.98;;;;;;;11.71;71.34;101332.44;5035041;28;20362;-87
2020/12/17 03:20:11;;;;;;;15.90;11.40;;;;;;;11.85;70.45;101329.53;5035787;28;20408;-87
2020/12/17 03:22:38;;;;;;;14.48;11.40;;;;;;;11.77;71.58;101324.38;5033971;28;20036;-88
2020/12/17 03:25:08;;;;;;;15.00;10.73;;;;;;;11.82;71.36;101330.47;5035893;28;20123;-88
2020/12/17 03:27:35;;;;;;;16.85;11.90;;;;;;;11.85;71.11;101330.44;5035139;28;20026;-88
2020/12/17 03:30:03;;;;;;;18.50;13.05;;;;;;;11.77;71.08;101329.69;5035325;28;20469;-87
2020/12/17 03:32:30;;;;;;;17.55;12.25;;;;;;;11.82;70.79;101325.16;5035200;28;20034;-88
2020/12/17 03:34:56;;;;;;;17.42;12.05;;;;;;;11.82;70.66;101328.72;5035321;28;20036;-88
2020/12/17 03:37:23;;;;;;;17.30;11.60;;;;;;;11.81;70.67;101328.72;5034839;28;20108;-88
2020/12/17 03:39:50;;;;;;;18.67;11.65;;;;;;;11.81;70.70;101331.38;5035159;28;20037;-88
2020/12/17 03:42:17;;;;;;;19.42;13.13;;;;;;;11.85;70.95;101334.84;5034717;28;20033;-88
2020/12/17 03:44:44;;;;;;;16.05;12.38;;;;;;;11.87;70.88;101331.25;5035077;28;20021;-88
2020/12/17 03:47:14;;;;;;;18.67;12.60;;;;;;;11.88;71.39;101342.78;5034749;28;20021;-90
2020/12/17 03:49:43;;;;;;;21.13;13.40;;;;;;;11.77;71.30;101348.25;5034727;28;20038;-89
2020/12/17 03:52:12;;;;;;;29.42;13.77;;;;;;;11.70;71.51;101341.28;5034851;28;20087;-90
2020/12/17 03:54:39;;;;;;;24.25;15.73;;;;;;;11.65;72.21;101344.91;5034538;28;20033;-89
2020/12/17 03:57:08;;;;;;;26.23;15.45;;;;;;;11.47;73.40;101355.81;5034465;28;20502;-88
2020/12/17 03:59:43;;;;;;;24.90;15.23;;;;;;;11.63;72.37;101364.41;5034804;28;20044;-89
2020/12/17 04:02:15;;;;;;;27.02;15.93;;;;;;;11.63;72.30;101370.59;5034741;28;20517;-89
2020/12/17 04:04:46;;;;;;;32.72;17.05;;;;;;;11.63;72.25;101370.59;5034317;28;20032;-89
2020/12/17 04:07:15;;;;;;;25.60;16.08;;;;;;;11.53;72.93;101370.78;5034696;28;20033;-89
2020/12/17 04:09:49;;;;;;;25.05;15.90;;;;;;;11.59;72.60;101376.84;5034418;28;20036;-89
2020/12/17 04:12:15;;;;;;;31.17;18.05;;;;;;;11.62;72.34;101374.13;5035004;28;20095;-90
2020/12/17 04:14:42;;;;;;;27.23;16.98;;;;;;;11.58;72.40;101375.09;5034226;28;20057;-92
2020/12/17 04:17:08;;;;;;;24.45;16.58;;;;;;;11.57;72.57;101365.38;5034701;28;20025;-90
2020/12/17 04:19:34;;;;;;;25.80;14.77;;;;;;;11.62;72.34;101366.19;5034092;28;20424;-90
2020/12/17 04:22:01;;;;;;;26.77;16.95;;;;;;;11.56;72.78;101366.28;5034773;28;20026;-90
2020/12/17 04:24:30;;;;;;;24.58;18.08;;;;;;;11.64;72.24;101367.03;5033951;28;20473;-91
2020/12/17 04:26:56;;;;;;;26.27;17.17;;;;;;;11.63;71.88;101359.97;5034246;28;20120;-90
2020/12/17 04:29:23;;;;;;;30.00;18.80;;;;;;;11.67;71.75;101358.16;5032658;28;20037;-90
2020/12/17 04:31:50;;;;;;;25.40;17.75;;;;;;;11.60;72.22;101361.78;5034520;28;20059;-88
2020/12/17 04:34:16;;;;;;;23.67;16.10;;;;;;;11.60;72.54;101362.69;5033467;28;20057;-89
2020/12/17 04:36:42;;;;;;;27.55;18.15;;;;;;;11.63;72.01;101367.94;5034102;28;20034;-90
2020/12/17 04:39:08;;;;;;;27.40;17.58;;;;;;;11.58;72.70;101367.13;5034059;28;20036;-91
2020/12/17 04:41:42;;;;;;;30.05;18.33;;;;;;;11.67;72.12;101362.59;5034121;28;20029;-91
2020/12/17 04:44:09;;;;;;;28.52;18.63;;;;;;;11.65;72.37;101365.25;5033964;28;20029;-89
2020/12/17 04:46:36;;;;;;;23.38;16.95;;;;;;;11.63;71.94;101367.94;5034239;28;20068;-90
2020/12/17 04:49:03;;;;;;;27.00;17.58;;;;;;;11.57;72.85;101378.66;5033463;28;20087;-90
2020/12/17 04:51:31;;;;;;;27.17;17.80;;;;;;;11.68;72.10;101377.63;5034064;28;20372;-89
2020/12/17 04:54:02;;;;;;;23.58;16.48;;;;;;;11.71;72.33;101380.22;5034413;28;20028;-90
2020/12/17 04:56:37;;;;;;;28.52;18.42;;;;;;;11.64;72.44;101384.75;5041002;28;20120;-90
2020/12/17 04:59:04;;;;;;;25.98;18.05;;;;;;;11.63;72.03;101389.16;5039924;28;20128;-90
2020/12/17 05:01:35;;;;;;;26.95;18.80;;;;;;;11.60;72.31;101393.66;5033876;28;20080;-90
2020/12/17 05:04:02;;;;;;;25.67;18.52;;;;;;;11.58;72.41;101401.63;5040133;28;20171;-91
2020/12/17 05:06:29;;;;;;;29.15;18.98;;;;;;;11.59;71.87;101397.19;5033426;28;20029;-91
2020/12/17 05:08:55;;;;;;;35.08;21.27;;;;;;;11.46;72.65;101396.50;5033893;28;20108;-90
2020/12/17 05:11:21;;;;;;;37.35;21.45;;;;;;;11.52;72.06;101403.53;5034582;28;20479;-90
2020/12/17 05:13:48;;;;;;;31.67;21.73;;;;;;;11.53;72.67;101402.63;5037925;28;20021;-90
2020/12/17 05:16:14;;;;;;;33.50;21.60;;;;;;;11.53;72.23;101408.78;5037738;28;20388;-91
2020/12/17 05:18:40;;;;;;;31.58;20.83;;;;;;;11.47;72.60;101414.19;5037333;28;20496;-89
2020/12/17 05:21:07;;;;;;;32.75;22.15;;;;;;;11.46;72.31;101418.63;5037731;28;20053;-90
2020/12/17 05:23:34;;;;;;;32.97;21.27;;;;;;;11.43;72.79;101415.16;5037168;28;20047;-88
2020/12/17 05:26:00;;;;;;;36.40;23.00;;;;;;;11.42;72.52;101411.59;5037576;28;20429;-90
2020/12/17 05:28:27;;;;;;;38.53;24.50;;;;;;;11.36;72.73;101434.69;5037748;28;20037;-90
2020/12/17 05:30:59;;;;;;;39.35;25.85;;;;;;;11.42;72.53;101437.28;5037486;28;20037;-90
2020/12/17 05:33:26;;;;;;;34.08;23.45;;;;;;;11.43;72.54;101444.34;5036829;28;20474;-89
2020/12/17 05:35:53;;;;;;;36.10;23.40;;;;;;;11.45;72.22;101442.50;5037447;28;20480;-90
2020/12/17 05:38:25;;;;;;;38.42;23.88;;;;;;;11.44;72.86;101443.41;5037614;28;20196;-89
2020/12/17 05:40:52;;;;;;;41.50;24.20;;;;;;;11.42;72.42;101442.56;5037343;28;20033;-89
2020/12/17 05:43:22;;;;;;;37.00;23.80;;;;;;;11.45;72.34;101450.47;5037141;28;20359;-89
2020/12/17 05:45:51;;;;;;;40.28;24.10;;;;;;;11.22;73.14;101461.41;5037213;28;20021;-90
2020/12/17 05:48:20;;;;;;;36.13;23.45;;;;;;;11.28;73.15;101462.19;5037345;28;20040;-91
2020/12/17 05:50:51;;;;;;;35.40;23.02;;;;;;;11.21;73.38;101470.25;5036798;28;20495;-90
2020/12/17 05:53:24;;;;;;;31.35;20.80;;;;;;;11.29;72.96;101478.97;5037393;28;20025;-90
2020/12/17 05:56:00;;;;;;;31.35;19.95;;;;;;;11.04;73.56;101494.31;5036718;28;20041;-89
2020/12/17 05:58:39;;;;;;;31.70;20.67;;;;;;;11.27;72.84;101496.72;5035173;28;20058;-90
2020/12/17 06:01:16;;;;;;;31.13;20.42;;;;;;;11.27;72.64;101489.63;5037398;28;20125;-90
2020/12/17 06:03:44;;;;;;;27.25;19.02;;;;;;;11.22;72.87;101490.59;5036823;28;20034;-90
2020/12/17 06:06:12;;;;;;;29.88;18.77;;;;;;;11.19;72.73;101494.16;5036458;28;20496;-89
2020/12/17 06:08:41;;;;;;;27.35;17.98;;;;;;;11.11;72.91;101493.38;5036858;28;20442;-90
2020/12/17 06:11:09;;;;;;;28.20;18.08;;;;;;;11.22;72.95;101494.13;5036999;28;20025;-90
2020/12/17 06:13:41;;;;;;;29.42;18.55;;;;;;;11.21;72.50;101495.00;5036957;28;20072;-88
2020/12/17 06:16:10;;;;;;;27.45;17.05;;;;;;;11.13;72.84;101504.84;5036364;28;20128;-89
2020/12/17 06:18:40;;;;;;;25.77;17.50;;;;;;;11.12;72.72;101498.66;5036295;28;20473;-90
2020/12/17 06:21:09;;;;;;;25.58;16.75;;;;;;;11.10;73.05;101500.47;5036592;28;20066;-89
2020/12/17 06:23:37;;;;;;;26.58;17.65;;;;;;;11.13;72.38;101499.53;5035849;28;20362;-89
2020/12/17 06:26:10;;;;;;;22.98;15.93;;;;;;;11.01;73.36;101500.53;5035980;28;20083;-92
2020/12/17 06:28:43;;;;;;;28.00;18.70;;;;;;;11.03;73.04;101506.72;5036600;28;20026;-89
2020/12/17 06:31:13;;;;;;;36.83;20.20;;;;;;;11.07;73.11;101511.09;5040173;28;20042;-90
2020/12/17 06:33:39;;;;;;;33.13;21.13;;;;;;;11.08;72.83;101514.59;5049392;28;20465;-89
2020/12/17 06:36:18;;;;;;;35.72;22.38;;;;;;;11.17;72.78;101527.78;5048486;28;20045;-89
2020/12/17 06:38:46;;;;;;;38.35;22.10;;;;;;;11.21;72.20;101523.31;5036149;28;20033;-91
2020/12/17 06:41:18;;;;;;;38.63;23.42;;;;;;;11.19;72.87;101515.38;5036005;28;20036;-89
2020/12/17 06:43:44;;;;;;;35.78;22.10;;;;;;;11.12;72.62;101527.81;5035403;28;20026;-88
2020/12/17 06:46:36;;;;;;;33.15;21.92;;;;;;;11.14;73.29;101533.09;5036241;28;20057;-90
2020/12/17 06:49:06;;;;;;;35.33;21.13;;;;;;;11.17;72.62;101530.44;5035275;28;20026;-90
2020/12/17 07:10:32;;;;;;;30.02;18.73;;;;;;;11.22;72.97;101539.19;5007940;27;3182191;-89
2020/12/17 07:12:58;;;;;;;36.97;24.40;;;;;;;11.14;72.91;101543.69;5111393;28;20499;-90
2020/12/17 07:15:38;;;;;;;31.77;20.92;;;;;;;11.23;72.59;101550.72;5111219;28;20035;-90
2020/12/17 07:18:25;;;;;;;36.78;22.98;;;;;;;11.13;72.79;101541.97;5111653;28;20032;-90
2020/12/17 07:21:01;;;;;;;33.90;21.90;;;;;;;10.94;73.50;101539.53;5111520;28;20399;-91
2020/12/17 07:23:32;;;;;;;37.42;23.30;;;;;;;11.10;73.20;101553.50;5110695;28;20418;-90
2020/12/17 07:26:06;;;;;;;33.63;23.23;;;;;;;11.15;73.14;101562.28;5118832;28;20034;-90
2020/12/17 07:28:32;;;;;;;40.55;24.80;;;;;;;11.08;73.22;101568.53;5119374;28;20081;-89
2020/12/17 07:30:58;;;;;;;36.60;23.80;;;;;;;11.08;73.69;101575.59;5118898;28;20467;-89
2020/12/17 07:36:39;;;;;;;37.90;23.38;;;;;;;11.23;73.12;101578.09;5099145;27;20437;-87
2020/12/17 07:39:07;;;;;;;35.92;23.60;;;;;;;11.16;73.48;101587.00;5055296;28;20045;-90
2020/12/17 07:41:34;;;;;;;38.75;23.77;;;;;;;11.18;73.76;101587.88;5051979;28;20494;-88
2020/12/17 07:44:05;;;;;;;38.55;24.38;;;;;;;11.22;73.75;101584.28;5050658;28;20103;-87
2020/12/17 07:49:22;;;;;;;36.10;24.98;;;;;;;11.26;73.72;101591.31;5071357;28;20406;-89
2020/12/17 07:51:49;;;;;;;38.20;24.83;;;;;;;11.28;73.15;101599.28;5071182;28;20032;-89
2020/12/17 07:54:21;;;;;;;32.75;23.02;;;;;;;11.34;73.12;101588.59;5070843;28;20029;-89
2020/12/17 07:57:01;;;;;;;35.55;23.20;;;;;;;11.42;72.86;101599.13;5071031;28;20435;-88
2020/12/17 07:59:30;;;;;;;36.47;23.88;;;;;;;11.30;73.24;101597.47;5071243;28;20115;-90
2020/12/17 08:02:03;;;;;;;34.20;22.95;;;;;;;11.33;73.28;101602.75;5069899;28;20029;-88
2020/12/17 08:04:32;;;;;;;37.35;23.88;;;;;;;11.23;73.73;101594.03;5070472;28;20028;-88
2020/12/17 08:07:10;;;;;;;35.22;22.75;;;;;;;11.30;73.44;101594.81;5070904;28;20036;-89
2020/12/17 08:09:37;;;;;;;31.35;20.48;;;;;;;11.17;73.83;101607.34;5071213;28;20024;-88
2020/12/17 08:12:03;;;;;;;33.10;21.08;;;;;;;11.37;72.85;101612.44;5069909;28;20081;-89
2020/12/17 08:14:30;;;;;;;32.17;20.83;;;;;;;11.24;73.23;101602.84;5070551;28;20029;-90
2020/12/17 08:17:21;;;;;;;28.95;19.73;;;;;;;11.31;73.11;101608.09;5071018;28;20064;-91
2020/12/17 08:20:03;;;;;;;27.40;19.88;;;;;;;11.33;73.15;101605.41;5071972;28;20024;-91
2020/12/17 08:22:31;;;;;;;31.00;19.40;;;;;;;11.28;73.06;101613.41;5071111;28;20047;-89
2020/12/17 08:25:04;;;;;;;28.17;19.27;;;;;;;11.37;72.48;101616.88;5069920;28;20037;-90
2020/12/17 08:27:31;;;;;;;26.80;18.08;;;;;;;11.25;73.22;101629.38;5070183;28;20078;-91
2020/12/17 08:30:00;;;;;;;25.65;17.63;;;;;;;11.27;73.14;101630.22;5070595;28;20067;-93
2020/12/17 08:32:27;;;;;;;30.15;17.95;;;;;;;11.19;73.11;101629.44;5070289;28;20032;-94
2020/12/17 08:34:55;;;;;;;24.77;15.73;;;;;;;11.18;72.96;101630.31;5070847;28;20028;-90
2020/12/17 08:37:22;;;;;;;21.27;15.18;;;;;;;11.24;72.84;101640.88;5077923;28;20025;-89
2020/12/17 08:40:17;;;;;;;22.45;14.98;;;;;;;11.20;73.12;101638.25;5070706;28;20082;-88
2020/12/17 08:42:46;;;;;;;25.08;15.02;;;;;;;11.26;73.07;101647.03;5070114;28;20033;-90
2020/12/17 08:45:16;;;;;;;24.80;14.10;;;;;;;11.17;72.92;101644.47;5070204;28;20115;-89
2020/12/17 08:47:45;;;;;;;22.33;14.02;;;;;;;11.15;72.92;101647.16;5069619;28;20122;-88
2020/12/17 08:50:12;;;;;;;21.42;13.35;;;;;;;11.19;73.04;101655.97;5070120;28;20036;-88
2020/12/17 08:52:38;;;;;;;19.30;12.70;;;;;;;11.13;73.17;101654.22;5068452;28;20029;-89
2020/12/17 08:55:07;;;;;;;21.50;12.32;;;;;;;11.20;72.48;101665.66;5066339;28;20029;-89
2020/12/17 08:57:39;;;;;;;20.58;11.63;;;;;;;11.22;73.14;101663.00;5067962;28;20056;-90
2020/12/17 09:00:15;;;;;;;17.90;10.57;;;;;;;11.10;72.59;101659.59;5056184;28;20035;-89
2020/12/17 09:02:42;;;;;;;16.65;10.35;;;;;;;11.19;72.85;101671.88;5050503;28;20025;-89
2020/12/17 09:05:18;;;;;;;15.13;10.98;;;;;;;11.13;72.71;101669.28;5051807;28;20039;-89
2020/12/17 09:07:53;;;;;;;20.08;10.40;;;;;;;11.26;72.35;101668.25;5047551;28;20169;-91
2020/12/17 09:10:19;;;;;;;21.65;10.63;;;;;;;11.23;72.86;101673.59;5045963;28;20115;-89
2020/12/17 09:12:46;;;;;;;24.65;15.77;;;;;;;11.31;72.40;101685.03;5050330;28;20024;-94
2020/12/17 09:15:13;;;;;;;24.63;11.75;;;;;;;11.09;72.93;101683.44;5052330;28;20032;-92
2020/12/17 09:17:40;;;;;;;16.88;10.07;;;;;;;11.30;72.35;101688.56;5048075;28;20068;-88
2020/12/17 09:20:22;;;;;;;15.43;9.85;;;;;;;11.28;71.76;101693.00;5046506;28;20139;-86
2020/12/17 09:22:49;;;;;;;20.38;9.68;;;;;;;11.39;71.58;101702.63;5043499;28;20030;-89
2020/12/17 09:25:26;;;;;;;13.30;8.38;;;;;;;11.15;72.13;101712.56;5049309;28;20029;-91
2020/12/17 09:27:52;;;;;;;14.07;8.45;;;;;;;11.17;72.53;101708.13;5051998;28;20462;-88
2020/12/17 09:35:36;;;;;;;18.30;8.52;;;;;;;11.18;71.84;101739.09;5077594;27;20446;-87
2020/12/17 09:38:08;;;;;;;12.65;8.20;;;;;;;11.21;71.64;101730.22;5059066;28;20477;-87
2020/12/17 09:40:37;;;;;;;15.63;7.65;;;;;;;11.28;71.79;101730.16;5047664;28;20079;-87
2020/12/17 09:46:03;;;;;;;18.10;8.43;;;;;;;11.47;71.33;101735.28;5071512;28;20830;-88
2020/12/17 09:48:31;;;;;;;15.52;9.05;;;;;;;11.55;70.92;101730.78;5045456;28;20036;-88
2020/12/17 09:51:01;;;;;;;18.77;9.15;;;;;;;11.50;71.43;101737.91;5043778;28;20057;-83
2020/12/17 09:53:28;;;;;;;16.55;7.57;;;;;;;11.33;71.80;101749.56;5042429;28;20033;-84
2020/12/17 09:55:54;;;;;;;18.55;8.95;;;;;;;11.67;70.89;101748.34;5040213;28;20021;-86
2020/12/17 09:58:21;;;;;;;13.35;8.13;;;;;;;11.80;70.16;101743.78;5045126;28;20029;-85
2020/12/17 10:00:47;;;;;;;15.27;7.68;;;;;;;11.66;70.86;101759.88;5034716;28;20037;-86
2020/12/17 10:03:14;;;;;;;17.08;7.53;;;;;;;11.53;71.17;101748.50;5040359;28;20036;-86
2020/12/17 10:05:40;;;;;;;18.58;6.95;;;;;;;11.39;71.27;101763.66;5038697;28;20034;-88
2020/12/17 10:08:19;;;;;;;12.60;6.53;;;;;;;11.33;71.31;101760.16;5034492;28;20492;-92
2020/12/17 10:10:45;;;;;;;18.20;6.72;;;;;;;11.59;70.97;101761.72;5043051;28;20037;-92
2020/12/17 10:13:20;;;;;;;13.25;6.22;;;;;;;11.55;70.99;101762.66;5046014;28;20033;-94
2020/12/17 10:15:47;;;;;;;17.13;6.82;;;;;;;11.78;70.03;101767.72;5039374;28;20037;-87
2020/12/17 10:18:20;;;;;;;14.23;7.25;;;;;;;11.75;70.05;101765.09;5058513;22;20067;-95
2020/12/17 10:20:46;;;;;;;14.40;6.47;;;;;;;11.68;70.31;101773.16;5014961;28;20034;-87
2020/12/17 10:23:13;;;;;;;20.40;7.78;;;;;;;11.75;70.34;101774.81;5027781;28;20514;-86
2020/12/17 10:25:39;;;;;;;13.88;7.10;;;;;;;11.86;69.34;101778.25;5026803;28;20032;-86
2020/12/17 10:28:05;;;;;;;13.52;6.90;;;;;;;11.65;70.08;101777.59;5027787;28;20026;-86
2020/12/17 10:30:31;;;;;;;10.95;6.88;;;;;;;11.75;69.30;101788.09;5019785;28;20485;-87
2020/12/17 10:32:57;;;;;;;11.82;6.05;;;;;;;11.88;69.44;101789.75;5009016;28;20429;-86
2020/12/17 10:35:24;;;;;;;20.20;6.97;;;;;;;11.58;70.19;101789.16;5011328;28;20169;-88
2020/12/17 10:37:50;;;;;;;18.42;6.80;;;;;;;11.90;69.75;101798.59;5007525;28;20030;-87
2020/12/17 10:40:19;;;;;;;12.85;6.25;;;;;;;11.81;69.83;101798.66;5009303;28;20026;-87
2020/12/17 10:42:45;;;;;;;23.77;7.10;;;;;;;11.87;70.01;101795.94;5008883;28;20019;-86
2020/12/17 10:45:11;;;;;;;18.55;7.53;;;;;;;12.06;68.90;101795.78;5011175;28;20517;-85
2020/12/17 10:47:38;;;;;;;17.83;7.05;;;;;;;12.16;69.11;101802.75;5009066;28;20030;-85
2020/12/17 10:50:06;;;;;;;20.95;7.05;;;;;;;11.88;69.83;101808.34;5009688;28;20044;-86
2020/12/17 10:52:32;;;;;;;19.20;7.70;;;;;;;11.93;69.04;101806.50;5007325;28;20053;-86
2020/12/17 10:54:58;;;;;;;15.65;6.72;;;;;;;11.94;69.70;101815.38;5007967;28;20038;-86
2020/12/17 10:57:24;;;;;;;17.27;7.13;;;;;;;11.98;69.70;101809.16;4996324;28;20034;-86
2020/12/17 10:59:50;;;;;;;18.02;7.90;;;;;;;12.03;69.18;101823.25;4995871;28;20026;-85
2020/12/17 11:02:16;;;;;;;13.27;6.43;;;;;;;11.88;69.86;101805.69;4995141;28;20441;-85
2020/12/17 11:04:43;;;;;;;15.93;6.82;;;;;;;12.14;69.06;101808.09;4994547;28;20056;-85
2020/12/17 11:07:09;;;;;;;21.00;6.60;;;;;;;12.05;68.99;101804.66;4994932;28;20521;-85
2020/12/17 11:09:35;;;;;;;13.15;6.18;;;;;;;12.14;68.68;101812.53;4994460;28;20481;-85
2020/12/17 11:12:02;;;;;;;18.63;6.35;;;;;;;12.02;69.01;101810.88;4992939;28;20026;-85
2020/12/17 11:14:28;;;;;;;15.60;5.90;;;;;;;12.05;68.93;101832.09;4992730;28;20030;-86
2020/12/17 11:16:54;;;;;;;19.23;6.57;;;;;;;12.25;68.96;101829.22;4994565;28;20038;-84
2020/12/17 11:19:20;;;;;;;18.80;6.18;;;;;;;12.08;69.36;101829.41;4994596;28;20026;-85
2020/12/17 11:21:47;;;;;;;14.85;5.90;;;;;;;11.97;70.10;101829.53;4994861;28;20031;-85
2020/12/17 11:24:13;;;;;;;15.45;6.30;;;;;;;12.17;70.07;101831.09;4994237;28;20396;-85
2020/12/17 11:26:43;;;;;;;19.35;6.38;;;;;;;12.25;69.61;101831.88;4994567;28;20033;-85
2020/12/17 11:29:10;;;;;;;20.77;7.03;;;;;;;12.18;70.42;101824.88;4994498;28;20076;-86
2020/12/17 11:31:37;;;;;;;15.50;6.53;;;;;;;12.40;69.65;101825.53;4994658;28;20194;-86
2020/12/17 11:34:03;;;;;;;14.32;5.63;;;;;;;12.33;69.69;101825.63;4991728;28;20034;-85
2020/12/17 11:36:30;;;;;;;12.70;4.95;;;;;;;12.17;69.46;101836.41;4994508;28;20022;-84
2020/12/17 11:38:56;;;;;;;12.13;5.20;;;;;;;12.16;69.45;101834.63;4994153;28;20034;-86
2020/12/17 11:41:22;;;;;;;12.18;5.07;;;;;;;12.16;69.19;101833.75;4991750;28;20045;-85
2020/12/17 11:43:48;;;;;;;16.90;6.43;;;;;;;12.03;69.21;101833.88;4994068;28;20728;-86
2020/12/17 11:46:18;;;;;;;15.50;5.03;;;;;;;12.20;68.53;101841.69;4994147;28;20018;-86
2020/12/17 11:48:45;;;;;;;12.38;5.15;;;;;;;12.12;68.85;101836.47;4991877;28;20113;-85
2020/12/17 11:51:13;;;;;;;13.95;5.68;;;;;;;12.21;68.43;101838.16;4994210;28;20022;-85
2020/12/17 11:53:40;;;;;;;17.77;5.57;;;;;;;12.02;68.70;101828.59;4993144;28;20022;-88